createdAt,value
2022-11-12T00:01:01.676Z,102631.81
2022-11-12T00:03:28.488Z,102636.13
2022-11-12T00:05:55.331Z,102634.28
2022-11-12T00:08:22.827Z,102631.50
2022-11-12T00:10:49.742Z,102641.16
2022-11-12T00:13:16.617Z,102642.84
2022-11-12T00:15:43.391Z,102642.78
2022-11-12T00:18:10.280Z,102642.66
2022-11-12T00:20:37.135Z,102645.22
2022-11-12T00:23:04.015Z,102644.28
2022-11-12T00:25:31.110Z,102644.19
2022-11-12T00:28:03.282Z,102651.22
2022-11-12T00:30:30.110Z,102649.31
2022-11-12T00:32:56.980Z,102651.91
2022-11-12T00:35:23.761Z,102650.94
2022-11-12T00:37:57.729Z,102649.13
2022-11-12T00:40:25.335Z,102649.03
2022-11-12T00:42:52.966Z,102649.78
2022-11-12T00:45:20.795Z,102646.22
2022-11-12T00:47:47.625Z,102641.69
2022-11-12T00:50:15.944Z,102639.88
2022-11-12T00:52:42.994Z,102640.72
2022-11-12T00:55:09.958Z,102639.81
2022-11-12T00:57:36.765Z,102645.84
2022-11-12T01:00:06.558Z,102648.50
2022-11-12T01:02:40.684Z,102646.63
2022-11-12T01:05:10.429Z,102652.69
2022-11-12T01:07:37.288Z,102653.50
2022-11-12T01:10:04.949Z,102659.63
2022-11-12T01:12:32.563Z,102662.22
2022-11-12T01:14:59.829Z,102658.59
2022-11-12T01:17:26.665Z,102659.41
2022-11-12T01:19:53.546Z,102663.81
2022-11-12T01:22:20.313Z,102652.31
2022-11-12T01:24:47.115Z,102660.22
2022-11-12T01:27:14.089Z,102663.72
2022-11-12T01:29:41.120Z,102663.72
2022-11-12T01:32:08.036Z,102661.06
2022-11-12T01:34:34.994Z,102661.91
2022-11-12T01:37:01.753Z,102664.56
2022-11-12T01:39:28.512Z,102671.66
2022-11-12T01:41:55.313Z,102669.91
2022-11-12T01:44:26.731Z,102670.81
2022-11-12T01:47:29.494Z,102668.03
2022-11-12T01:50:26.061Z,102676.81
2022-11-12T01:53:01.151Z,102672.41
2022-11-12T01:55:32.853Z,102665.31
2022-11-12T01:58:10.902Z,102675.91
2022-11-12T02:00:37.742Z,102669.59
2022-11-12T02:03:13.068Z,102672.25
2022-11-12T02:05:41.816Z,102674.84
2022-11-12T02:08:11.054Z,102673.03
2022-11-12T02:10:40.277Z,102673.00
2022-11-12T02:13:26.891Z,102664.03
2022-11-12T02:15:53.759Z,102675.44
2022-11-12T02:18:20.531Z,102676.22
2022-11-12T02:20:59.540Z,102684.16
2022-11-12T02:23:26.340Z,102675.22
2022-11-12T02:25:53.109Z,102672.53
2022-11-12T02:28:19.978Z,102671.56
2022-11-12T02:30:49.667Z,102669.75
2022-11-12T02:33:16.732Z,102678.56
2022-11-12T02:35:43.552Z,102673.16
2022-11-12T02:38:10.557Z,102674.88
2022-11-12T02:40:37.445Z,102681.84
2022-11-12T02:43:04.416Z,102678.25
2022-11-12T02:45:32.066Z,102677.28
2022-11-12T02:47:59.537Z,102669.25
2022-11-12T02:50:26.319Z,102675.31
2022-11-12T02:52:53.083Z,102676.13
2022-11-12T02:55:19.909Z,102681.31
2022-11-12T02:57:46.671Z,102671.50
2022-11-12T03:00:14.037Z,102670.56
2022-11-12T03:02:42.698Z,102675.81
2022-11-12T03:05:11.524Z,102673.91
2022-11-12T03:07:39.082Z,102659.69
2022-11-12T03:10:06.659Z,102661.41
2022-11-12T03:12:33.454Z,102671.03
2022-11-12T03:15:00.241Z,102665.63
2022-11-12T03:17:27.019Z,102672.59
2022-11-12T03:19:53.796Z,102665.41
2022-11-12T03:22:20.552Z,102672.31
2022-11-12T03:24:47.299Z,102675.78
2022-11-12T03:27:14.077Z,102673.00
2022-11-12T03:29:40.829Z,102675.53
2022-11-12T03:32:07.592Z,102663.97
2022-11-12T03:34:34.407Z,102667.38
2022-11-12T03:37:01.193Z,102664.63
2022-11-12T03:39:27.975Z,102667.09
2022-11-12T03:41:54.726Z,102663.44
2022-11-12T03:44:21.823Z,102669.50
2022-11-12T03:46:48.667Z,102668.50
2022-11-12T03:49:15.439Z,102667.50
2022-11-12T03:51:42.467Z,102674.41
2022-11-12T03:54:09.330Z,102674.22
2022-11-12T03:56:36.100Z,102670.66
2022-11-12T03:59:02.960Z,102660.81
2022-11-12T04:01:29.774Z,102674.75
2022-11-12T04:03:56.565Z,102662.38
2022-11-12T04:06:42.176Z,102662.28
2022-11-12T04:09:09.048Z,102659.47
2022-11-12T04:11:35.822Z,102667.31
2022-11-12T04:14:02.680Z,102661.91
2022-11-12T04:16:47.976Z,102666.22
2022-11-12T04:19:33.075Z,102654.56
2022-11-12T04:22:10.317Z,102659.81
2022-11-12T04:24:59.163Z,102658.78
2022-11-12T04:27:29.797Z,102667.47
2022-11-12T04:30:16.010Z,102662.97
2022-11-12T04:32:50.403Z,102654.09
2022-11-12T04:35:19.040Z,102661.03
2022-11-12T04:37:46.480Z,102660.03
2022-11-12T04:40:37.137Z,102652.94
2022-11-12T04:43:24.724Z,102650.13
2022-11-12T04:45:53.838Z,102650.84
2022-11-12T04:48:22.294Z,102651.72
2022-11-12T04:50:54.753Z,102656.00
2022-11-12T04:53:21.863Z,102655.03
2022-11-12T04:55:54.055Z,102655.00
2022-11-12T04:58:21.743Z,102659.28
2022-11-12T05:00:50.243Z,102662.72
2022-11-12T05:03:17.893Z,102672.31
2022-11-12T05:05:44.656Z,102657.25
2022-11-12T05:08:11.438Z,102645.69
2022-11-12T05:10:38.247Z,102653.59
2022-11-12T05:13:05.018Z,102656.16
2022-11-12T05:15:31.793Z,102657.78
2022-11-12T05:17:58.603Z,102655.97
2022-11-12T05:20:25.366Z,102659.44
2022-11-12T05:23:05.784Z,102655.84
2022-11-12T05:25:35.738Z,102661.91
2022-11-12T05:28:02.561Z,102657.41
2022-11-12T05:30:29.350Z,102665.16
2022-11-12T05:32:56.090Z,102662.53
2022-11-12T05:35:22.846Z,102658.03
2022-11-12T05:37:49.688Z,102657.06
2022-11-12T05:40:16.513Z,102658.69
2022-11-12T05:42:44.741Z,102656.00
2022-11-12T05:45:11.535Z,102660.38
2022-11-12T05:47:38.305Z,102669.13
2022-11-12T05:50:05.609Z,102668.09
2022-11-12T05:52:32.392Z,102668.84
2022-11-12T05:54:59.201Z,102666.16
2022-11-12T05:57:27.728Z,102657.19
2022-11-12T05:59:54.494Z,102668.53
2022-11-12T06:02:21.407Z,102664.06
2022-11-12T06:04:48.275Z,102665.81
2022-11-12T06:07:15.123Z,102655.13
2022-11-12T06:09:41.949Z,102664.88
2022-11-12T06:12:08.717Z,102666.50
2022-11-12T06:14:35.481Z,102661.25
2022-11-12T06:17:02.244Z,102662.94
2022-11-12T06:19:29.005Z,102664.66
2022-11-12T06:21:55.788Z,102665.50
2022-11-12T06:24:22.664Z,102664.50
2022-11-12T06:26:49.618Z,102658.38
2022-11-12T06:29:16.403Z,102668.75
2022-11-12T06:31:43.153Z,102670.50
2022-11-12T06:34:09.939Z,102666.97
2022-11-12T06:36:36.717Z,102666.00
2022-11-12T06:39:03.792Z,102667.66
2022-11-12T06:41:30.567Z,102669.47
2022-11-12T06:43:57.315Z,102677.31
2022-11-12T06:46:24.087Z,102685.16
2022-11-12T06:48:50.858Z,102688.63
2022-11-12T06:51:20.397Z,102682.53
2022-11-12T06:53:47.888Z,102683.34
2022-11-12T06:56:15.493Z,102685.16
2022-11-12T06:58:42.629Z,102692.28
2022-11-12T07:01:14.389Z,102692.38
2022-11-12T07:03:42.267Z,102694.19
2022-11-12T07:06:13.119Z,102702.22
2022-11-12T07:08:40.673Z,102706.78
2022-11-12T07:11:07.981Z,102706.16
2022-11-12T07:13:35.980Z,102715.91
2022-11-12T07:16:04.681Z,102718.72
2022-11-12T07:18:32.448Z,102710.91
2022-11-12T07:21:01.304Z,102704.03
2022-11-12T07:23:30.317Z,102719.13
2022-11-12T07:26:03.962Z,102714.16
2022-11-12T07:28:31.400Z,102709.91
2022-11-12T07:30:59.892Z,102715.56
2022-11-12T07:33:28.076Z,102720.41
2022-11-12T07:35:59.624Z,102724.19
2022-11-12T07:38:27.847Z,102711.31
2022-11-12T07:41:21.339Z,102724.03
2022-11-12T07:43:50.593Z,102719.84
2022-11-12T07:46:23.900Z,102719.13
2022-11-12T07:48:51.680Z,102713.13
2022-11-12T07:51:25.671Z,102710.81
2022-11-12T07:53:58.905Z,102704.03
2022-11-12T07:56:27.846Z,102713.22
2022-11-12T07:58:54.612Z,102712.03
2022-11-12T08:01:33.159Z,102720.59
2022-11-12T08:04:02.600Z,102712.31
2022-11-12T08:06:30.769Z,102720.03
2022-11-12T08:09:00.458Z,102712.66
2022-11-12T08:11:27.473Z,102715.81
2022-11-12T08:13:54.385Z,102713.66
2022-11-12T08:16:21.326Z,102720.25
2022-11-12T08:18:48.167Z,102714.44
2022-11-12T08:21:17.675Z,102714.84
2022-11-12T08:23:45.055Z,102717.00
2022-11-12T08:26:15.137Z,102718.22
2022-11-12T08:28:41.951Z,102721.25
2022-11-12T08:31:22.786Z,102713.84
2022-11-12T08:33:50.131Z,102715.94
2022-11-12T08:36:18.056Z,102723.41
2022-11-12T08:38:45.304Z,102726.44
2022-11-12T08:41:14.446Z,102722.44
2022-11-12T08:43:42.621Z,102720.16
2022-11-12T08:46:09.901Z,102713.41
2022-11-12T08:48:37.153Z,102722.56
2022-11-12T08:51:20.413Z,102722.94
2022-11-12T08:53:47.411Z,102729.41
2022-11-12T08:56:14.369Z,102717.31
2022-11-12T08:58:41.185Z,102721.16
2022-11-12T09:01:08.881Z,102721.41
2022-11-12T09:03:35.764Z,102726.94
2022-11-12T09:06:05.283Z,102720.09
2022-11-12T09:08:34.701Z,102720.25
2022-11-12T09:11:01.708Z,102719.50
2022-11-12T09:13:28.967Z,102716.13
2022-11-12T09:16:01.586Z,102712.78
2022-11-12T09:18:29.136Z,102718.22
2022-11-12T09:21:01.336Z,102716.66
2022-11-12T09:23:28.203Z,102727.41
2022-11-12T09:25:56.845Z,102719.66
2022-11-12T09:28:24.564Z,102726.84
2022-11-12T09:30:53.588Z,102726.03
2022-11-12T09:33:31.243Z,102731.38
2022-11-12T09:36:01.859Z,102734.97
2022-11-12T09:38:28.974Z,102743.88
2022-11-12T09:41:10.905Z,102736.00
2022-11-12T09:43:45.244Z,102737.00
2022-11-12T09:46:28.287Z,102737.88
2022-11-12T09:49:11.470Z,102738.88
2022-11-12T09:51:48.385Z,102742.56
2022-11-12T09:54:31.955Z,102739.16
2022-11-12T09:56:58.883Z,102727.81
2022-11-12T09:59:44.289Z,102736.03
2022-11-12T10:02:55.497Z,102727.25
2022-11-12T10:05:42.254Z,102715.84
2022-11-12T10:08:34.317Z,102714.19
2022-11-12T10:12:04.599Z,102722.28
2022-11-12T10:15:39.501Z,102725.94
2022-11-12T10:18:37.955Z,102717.16
2022-11-12T10:21:34.894Z,102729.66
2022-11-12T10:24:03.539Z,102716.41
2022-11-12T10:26:32.378Z,102712.91
2022-11-12T10:29:19.966Z,102721.00
2022-11-12T10:31:46.747Z,102721.00
2022-11-12T10:34:13.398Z,102705.00
2022-11-12T10:37:01.854Z,102716.59
2022-11-12T10:39:34.319Z,102710.38
2022-11-12T10:42:11.783Z,102704.19
2022-11-12T10:44:40.050Z,102713.13
2022-11-12T10:47:27.949Z,102703.44
2022-11-12T10:50:20.926Z,102702.59
2022-11-12T10:53:06.643Z,102702.69
2022-11-12T10:55:37.652Z,102697.47
2022-11-12T10:58:10.185Z,102697.56
2022-11-12T11:01:03.286Z,102700.38
2022-11-12T11:03:35.057Z,102689.78
2022-11-12T11:06:22.887Z,102695.22
2022-11-12T11:08:52.730Z,102697.06
2022-11-12T11:11:31.659Z,102690.06
2022-11-12T11:14:34.807Z,102688.34
2022-11-12T11:17:08.355Z,102694.56
2022-11-12T11:19:41.735Z,102688.41
2022-11-12T11:22:37.053Z,102678.69
2022-11-12T11:25:27.978Z,102685.84
2022-11-12T11:28:18.628Z,102680.56
2022-11-12T11:31:06.721Z,102677.03
2022-11-12T11:34:02.453Z,102671.69
2022-11-12T11:36:59.491Z,102677.09
2022-11-12T11:39:53.893Z,102678.91
2022-11-12T11:42:41.866Z,102674.53
2022-11-12T11:45:17.570Z,102673.72
2022-11-12T11:48:01.508Z,102669.34
2022-11-12T11:50:37.199Z,102667.66
2022-11-12T11:53:16.222Z,102662.41
2022-11-12T11:56:02.648Z,102667.81
2022-11-12T11:58:59.755Z,102668.75
2022-11-12T12:02:15.749Z,102659.06
2022-11-12T12:04:50.479Z,102663.50
2022-11-12T12:07:48.102Z,102653.78
2022-11-12T12:11:07.019Z,102648.50
2022-11-12T12:14:04.631Z,102648.53
2022-11-12T12:16:37.695Z,102650.31
2022-11-12T12:19:38.423Z,102645.00
2022-11-12T12:22:16.073Z,102645.91
2022-11-12T12:24:51.424Z,102644.16
2022-11-12T12:27:24.769Z,102640.59
2022-11-12T12:29:58.587Z,102650.38
2022-11-12T12:32:50.842Z,102647.72
2022-11-12T12:35:31.408Z,102637.06
2022-11-12T12:38:25.485Z,102638.00
2022-11-12T12:41:07.001Z,102636.25
2022-11-12T12:43:55.144Z,102638.97
2022-11-12T12:46:27.209Z,102638.09
2022-11-12T12:48:56.291Z,102623.88
2022-11-12T12:51:23.632Z,102629.22
2022-11-12T12:53:50.424Z,102622.06
2022-11-12T12:56:42.344Z,102629.19
2022-11-12T12:59:24.807Z,102629.19
2022-11-12T13:02:21.123Z,102630.94
2022-11-12T13:04:52.926Z,102626.47
2022-11-12T13:07:43.506Z,102620.22
2022-11-12T13:10:41.405Z,102622.84
2022-11-12T13:13:17.405Z,102621.03
2022-11-12T13:15:47.554Z,102615.63
2022-11-12T13:18:39.621Z,102609.44
2022-11-12T13:21:22.212Z,102610.34
2022-11-12T13:24:09.998Z,102614.78
2022-11-12T13:26:39.665Z,102609.44
2022-11-12T13:29:41.309Z,102595.28
2022-11-12T13:32:33.967Z,102609.50
2022-11-12T13:35:21.642Z,102613.97
2022-11-12T13:38:15.754Z,102615.72
2022-11-12T13:41:16.668Z,102615.75
2022-11-12T13:43:47.321Z,102614.91
2022-11-12T13:46:23.744Z,102606.88
2022-11-12T13:49:06.857Z,102621.13
2022-11-12T13:51:44.341Z,102621.13
2022-11-12T13:54:43.677Z,102609.56
2022-11-12T13:57:37.007Z,102604.22
2022-11-12T14:00:20.795Z,102606.88
2022-11-12T14:03:08.155Z,102602.44
2022-11-12T14:05:37.918Z,102609.56
2022-11-12T14:08:55.788Z,102611.28
2022-11-12T14:11:42.049Z,102598.81
2022-11-12T14:14:46.161Z,102603.28
2022-11-12T14:17:35.831Z,102605.03
2022-11-12T14:20:30.405Z,102594.34
2022-11-12T14:23:04.579Z,102587.19
2022-11-12T14:25:31.868Z,102591.56
2022-11-12T14:27:58.640Z,102596.00
2022-11-12T14:30:32.342Z,102592.41
2022-11-12T14:33:10.871Z,102586.19
2022-11-12T14:35:39.665Z,102592.31
2022-11-12T14:38:09.300Z,102591.41
2022-11-12T14:40:42.328Z,102589.56
2022-11-12T14:43:27.274Z,102582.41
2022-11-12T14:45:56.980Z,102581.47
2022-11-12T14:48:24.125Z,102586.72
2022-11-12T14:50:59.830Z,102582.25
2022-11-12T14:53:33.618Z,102588.41
2022-11-12T14:56:03.971Z,102582.13
2022-11-12T14:58:32.192Z,102580.28
2022-11-12T15:00:59.071Z,102581.97
2022-11-12T15:03:32.317Z,102587.19
2022-11-12T15:06:11.390Z,102575.56
2022-11-12T15:08:43.410Z,102580.81
2022-11-12T15:11:32.073Z,102581.50
2022-11-12T15:14:03.857Z,102572.50
2022-11-12T15:16:36.111Z,102579.50
2022-11-12T15:19:25.889Z,102576.69
2022-11-12T15:22:01.055Z,102579.19
2022-11-12T15:24:33.868Z,102577.28
2022-11-12T15:27:27.646Z,102590.44
2022-11-12T15:30:16.058Z,102584.06
2022-11-12T15:32:43.251Z,102579.47
2022-11-12T15:35:25.348Z,102587.31
2022-11-12T15:37:52.702Z,102591.56
2022-11-12T15:40:21.861Z,102578.16
2022-11-12T15:42:48.963Z,102579.78
2022-11-12T15:45:18.190Z,102585.88
2022-11-12T15:47:45.356Z,102590.13
2022-11-12T15:50:23.895Z,102597.03
2022-11-12T15:52:51.255Z,102592.50
2022-11-12T15:55:18.892Z,102583.47
2022-11-12T15:57:52.412Z,102587.78
2022-11-12T16:00:22.150Z,102589.41
2022-11-12T16:02:59.381Z,102591.06
2022-11-12T16:05:26.625Z,102586.50
2022-11-12T16:07:53.400Z,102580.13
2022-11-12T16:10:20.227Z,102575.59
2022-11-12T16:12:48.007Z,102574.59
2022-11-12T16:15:18.399Z,102582.41
2022-11-12T16:17:46.754Z,102586.72
2022-11-12T16:20:21.207Z,102583.97
2022-11-12T16:22:48.671Z,102573.97
2022-11-12T16:25:16.442Z,102565.91
2022-11-12T16:27:43.386Z,102568.44
2022-11-12T16:30:20.499Z,102573.69
2022-11-12T16:32:50.421Z,102575.34
2022-11-12T16:35:17.866Z,102566.38
2022-11-12T16:37:46.462Z,102560.09
2022-11-12T16:40:20.292Z,102561.72
2022-11-12T16:42:47.084Z,102569.53
2022-11-12T16:45:20.359Z,102575.66
2022-11-12T16:47:53.880Z,102567.56
2022-11-12T16:50:26.114Z,102561.28
2022-11-12T16:52:53.693Z,102564.69
2022-11-12T16:55:21.368Z,102568.13
2022-11-12T16:57:48.153Z,102571.56
2022-11-12T17:00:18.112Z,102576.81
2022-11-12T17:02:48.311Z,102551.91
2022-11-12T17:05:24.452Z,102566.00
2022-11-12T17:07:57.069Z,102569.47
2022-11-12T17:10:25.382Z,102579.94
2022-11-12T17:12:52.867Z,102570.13
2022-11-12T17:15:20.156Z,102572.69
2022-11-12T17:17:47.012Z,102571.69
2022-11-12T17:20:14.075Z,102565.41
2022-11-12T17:22:40.856Z,102575.91
2022-11-12T17:25:08.584Z,102572.28
2022-11-12T17:27:35.373Z,102560.69
2022-11-12T17:30:03.640Z,102565.03
2022-11-12T17:32:30.435Z,102564.03
2022-11-12T17:34:57.202Z,102569.25
2022-11-12T17:37:23.979Z,102560.25
2022-11-12T17:39:50.888Z,102570.78
2022-11-12T17:42:17.743Z,102565.41
2022-11-12T17:44:46.145Z,102566.19
2022-11-12T17:47:13.146Z,102559.91
2022-11-12T17:49:40.018Z,102558.03
2022-11-12T17:52:06.845Z,102561.53
2022-11-12T17:54:34.418Z,102561.47
2022-11-12T17:57:01.303Z,102569.34
2022-11-12T17:59:28.106Z,102558.63
2022-11-12T18:01:54.869Z,102570.06
2022-11-12T18:04:23.742Z,102561.13
2022-11-12T18:06:50.914Z,102556.59
2022-11-12T18:09:17.883Z,102556.53
2022-11-12T18:11:53.988Z,102559.13
2022-11-12T18:14:22.596Z,102558.09
2022-11-12T18:16:49.823Z,102555.31
2022-11-12T18:19:16.708Z,102556.16
2022-11-12T18:21:43.493Z,102556.94
2022-11-12T18:24:15.560Z,102552.47
2022-11-12T18:26:44.040Z,102558.53
2022-11-12T18:29:12.421Z,102546.06
2022-11-12T18:31:40.414Z,102559.28
2022-11-12T18:34:08.963Z,102571.56
2022-11-12T18:36:35.873Z,102574.13
2022-11-12T18:39:04.710Z,102561.66
2022-11-12T18:41:33.218Z,102565.06
2022-11-12T18:44:02.018Z,102562.38
2022-11-12T18:46:28.838Z,102558.78
2022-11-12T18:48:55.646Z,102563.09
2022-11-12T18:51:22.473Z,102567.44
2022-11-12T18:53:49.245Z,102562.91
2022-11-12T18:56:21.902Z,102555.81
2022-11-12T18:58:48.789Z,102554.88
2022-11-12T19:01:22.242Z,102553.91
2022-11-12T19:03:53.780Z,102561.75
2022-11-12T19:06:21.126Z,102557.25
2022-11-12T19:08:48.052Z,102551.94
2022-11-12T19:11:18.584Z,102548.31
2022-11-12T19:13:45.409Z,102550.88
2022-11-12T19:16:17.042Z,102551.72
2022-11-12T19:18:44.854Z,102544.63
2022-11-12T19:21:23.892Z,102548.09
2022-11-12T19:23:54.551Z,102558.63
2022-11-12T19:26:23.779Z,102547.94
2022-11-12T19:28:50.568Z,102539.00
2022-11-12T19:31:24.313Z,102538.09
2022-11-12T19:33:51.465Z,102541.53
2022-11-12T19:36:22.133Z,102535.38
2022-11-12T19:38:57.635Z,102531.75
2022-11-12T19:41:25.414Z,102544.03
2022-11-12T19:43:52.853Z,102535.16
2022-11-12T19:46:20.502Z,102543.03
2022-11-12T19:48:47.450Z,102534.16
2022-11-12T19:51:14.451Z,102532.31
2022-11-12T19:53:46.444Z,102533.19
2022-11-12T19:56:17.042Z,102535.75
2022-11-12T19:58:48.728Z,102533.06
2022-11-12T20:01:18.532Z,102529.47
2022-11-12T20:03:45.801Z,102539.09
2022-11-12T20:06:18.086Z,102534.66
2022-11-12T20:08:45.608Z,102518.69
2022-11-12T20:11:13.423Z,102518.63
2022-11-12T20:13:40.510Z,102532.75
2022-11-12T20:16:11.170Z,102522.09
2022-11-12T20:18:37.973Z,102518.47
2022-11-12T20:21:05.838Z,102513.16
2022-11-12T20:23:36.212Z,102528.13
2022-11-12T20:26:14.249Z,102520.97
2022-11-12T20:28:43.021Z,102511.19
2022-11-12T20:31:16.884Z,102522.59
2022-11-12T20:33:43.696Z,102517.16
2022-11-12T20:36:13.954Z,102518.88
2022-11-12T20:38:43.216Z,102512.63
2022-11-12T20:41:36.472Z,102512.56
2022-11-12T20:44:03.317Z,102514.28
2022-11-12T20:46:30.134Z,102516.91
2022-11-12T20:48:56.970Z,102515.94
2022-11-12T20:51:28.504Z,102515.09
2022-11-12T20:53:59.910Z,102522.97
2022-11-12T20:56:29.881Z,102523.84
2022-11-12T20:58:58.201Z,102518.50
2022-11-12T21:01:27.281Z,102526.44
2022-11-12T21:03:54.765Z,102521.97
2022-11-12T21:06:25.965Z,102521.97
2022-11-12T21:08:53.310Z,102505.19
2022-11-12T21:11:23.476Z,102511.31
2022-11-12T21:13:50.292Z,102508.66
2022-11-12T21:16:17.291Z,102506.94
2022-11-12T21:18:44.205Z,102499.78
2022-11-12T21:21:14.940Z,102503.28
2022-11-12T21:23:44.040Z,102501.47
2022-11-12T21:26:19.320Z,102496.19
2022-11-12T21:28:49.723Z,102480.28
2022-11-12T21:31:22.559Z,102486.47
2022-11-12T21:33:50.947Z,102484.63
2022-11-12T21:36:18.379Z,102483.75
2022-11-12T21:38:45.151Z,102483.81
2022-11-12T21:41:22.039Z,102482.97
2022-11-12T21:43:50.196Z,102471.44
2022-11-12T21:46:23.656Z,102460.88
2022-11-12T21:48:55.262Z,102459.97
2022-11-12T21:51:25.841Z,102467.03
2022-11-12T21:53:59.146Z,102459.09
2022-11-12T21:56:27.458Z,102458.97
2022-11-12T21:59:00.270Z,102455.50
2022-11-12T22:01:30.068Z,102451.88
2022-11-12T22:03:59.387Z,102451.09
2022-11-12T22:06:29.492Z,102446.59
2022-11-12T22:08:57.726Z,102439.56
2022-11-12T22:11:25.468Z,102445.75
2022-11-12T22:13:52.580Z,102440.44
2022-11-12T22:16:22.584Z,102436.91
2022-11-12T22:18:52.302Z,102436.03
2022-11-12T22:21:35.579Z,102443.03
2022-11-12T22:24:07.040Z,102427.94
2022-11-12T22:26:33.891Z,102435.00
2022-11-12T22:29:00.689Z,102435.00
2022-11-12T22:31:32.436Z,102436.78
2022-11-12T22:34:01.862Z,102424.38
2022-11-12T22:36:31.390Z,102431.41
2022-11-12T22:38:58.565Z,102422.56
2022-11-12T22:41:28.626Z,102420.00
2022-11-12T22:43:58.836Z,102426.09
2022-11-12T22:46:33.533Z,102420.00
2022-11-12T22:49:01.249Z,102425.28
2022-11-12T22:51:31.283Z,102423.47
2022-11-12T22:54:01.798Z,102429.66
2022-11-12T22:56:29.557Z,102431.41
2022-11-12T22:58:56.352Z,102424.31
2022-11-12T23:01:27.146Z,102419.84
2022-11-12T23:04:00.118Z,102419.84
2022-11-12T23:06:29.091Z,102431.25
2022-11-12T23:08:59.093Z,102419.72
2022-11-12T23:11:26.226Z,102417.09
2022-11-12T23:13:54.528Z,102412.63
2022-11-12T23:16:32.037Z,102418.81
2022-11-12T23:18:59.377Z,102421.44
2022-11-12T23:21:29.039Z,102424.91
2022-11-12T23:23:59.839Z,102417.84
2022-11-12T23:26:31.031Z,102416.03
2022-11-12T23:28:57.915Z,102416.84
2022-11-12T23:31:29.507Z,102423.84
2022-11-12T23:33:58.769Z,102417.63
2022-11-12T23:36:26.680Z,102418.47
2022-11-12T23:38:54.499Z,102412.22
2022-11-12T23:41:25.623Z,102399.84
2022-11-12T23:43:57.780Z,102402.47
2022-11-12T23:46:25.156Z,102400.59
2022-11-12T23:48:51.939Z,102397.06
2022-11-12T23:51:21.211Z,102402.34
2022-11-12T23:53:48.922Z,102392.59
2022-11-12T23:56:19.626Z,102393.44
2022-11-12T23:58:46.709Z,102384.59
